sensor_id;sensor_type;location;lat;lon;timestamp;pressure;altitude;pressure_sealevel;temperature;humidity
68994;BME280;56054;50.968;5.816;2023-04-28T00:01:52;100423.41;;;10.75;89.57
68994;BME280;56054;50.968;5.816;2023-04-28T00:04:53;100409.81;;;10.49;90.63
68994;BME280;56054;50.968;5.816;2023-04-28T00:07:54;100425.94;;;10.59;88.23
68994;BME280;56054;50.968;5.816;2023-04-28T00:10:54;100429.31;;;10.73;86.86
68994;BME280;56054;50.968;5.816;2023-04-28T00:13:55;100416.44;;;10.59;88.50
68994;BME280;56054;50.968;5.816;2023-04-28T00:17:14;100417.69;;;10.66;89.18
68994;BME280;56054;50.968;5.816;2023-04-28T00:20:25;100411.41;;;10.62;90.23
68994;BME280;56054;50.968;5.816;2023-04-28T00:23:25;100397.28;;;10.57;89.29
68994;BME280;56054;50.968;5.816;2023-04-28T00:26:26;100398.97;;;10.57;89.43
68994;BME280;56054;50.968;5.816;2023-04-28T00:29:28;100397.56;;;10.47;90.42
68994;BME280;56054;50.968;5.816;2023-04-28T00:32:28;100389.94;;;10.50;92.55
68994;BME280;56054;50.968;5.816;2023-04-28T00:35:29;100390.03;;;10.37;94.11
68994;BME280;56054;50.968;5.816;2023-04-28T00:38:29;100391.38;;;10.45;93.82
68994;BME280;56054;50.968;5.816;2023-04-28T00:41:30;100389.94;;;10.50;95.44
68994;BME280;56054;50.968;5.816;2023-04-28T00:44:30;100396.28;;;10.55;94.35
68994;BME280;56054;50.968;5.816;2023-04-28T00:47:36;100393.69;;;10.55;97.00
68994;BME280;56054;50.968;5.816;2023-04-28T00:50:38;100395.28;;;10.53;97.71
68994;BME280;56054;50.968;5.816;2023-04-28T00:53:39;100387.78;;;10.43;97.41
68994;BME280;56054;50.968;5.816;2023-04-28T00:56:39;100383.13;;;10.52;97.35
68994;BME280;56054;50.968;5.816;2023-04-28T00:59:40;100386.88;;;10.57;97.00
68994;BME280;56054;50.968;5.816;2023-04-28T01:02:40;100387.41;;;10.66;95.49
68994;BME280;56054;50.968;5.816;2023-04-28T01:05:40;100382.41;;;10.40;100.00
68994;BME280;56054;50.968;5.816;2023-04-28T01:08:41;100377.56;;;10.46;100.00
68994;BME280;56054;50.968;5.816;2023-04-28T01:11:49;100375.91;;;10.32;100.00
68994;BME280;56054;50.968;5.816;2023-04-28T01:15:17;100365.91;;;10.24;100.00
68994;BME280;56054;50.968;5.816;2023-04-28T01:18:18;100363.81;;;10.32;100.00
68994;BME280;56054;50.968;5.816;2023-04-28T01:21:32;100363.78;;;10.47;100.00
68994;BME280;56054;50.968;5.816;2023-04-28T01:24:38;100343.34;;;10.23;100.00
68994;BME280;56054;50.968;5.816;2023-04-28T01:27:43;100338.16;;;9.94;100.00
68994;BME280;56054;50.968;5.816;2023-04-28T01:30:43;100337.97;;;10.05;100.00
68994;BME280;56054;50.968;5.816;2023-04-28T01:33:44;100326.88;;;10.08;100.00
68994;BME280;56054;50.968;5.816;2023-04-28T01:36:44;100314.16;;;9.98;100.00
68994;BME280;56054;50.968;5.816;2023-04-28T01:39:44;100309.31;;;9.89;100.00
68994;BME280;56054;50.968;5.816;2023-04-28T01:42:45;100327.75;;;9.94;100.00
68994;BME280;56054;50.968;5.816;2023-04-28T01:45:45;100329.03;;;10.00;100.00
68994;BME280;56054;50.968;5.816;2023-04-28T01:48:46;100328.59;;;9.93;100.00
68994;BME280;56054;50.968;5.816;2023-04-28T01:51:46;100328.66;;;10.09;100.00
68994;BME280;56054;50.968;5.816;2023-04-28T01:54:47;100332.41;;;10.14;100.00
68994;BME280;56054;50.968;5.816;2023-04-28T01:57:49;100316.13;;;10.02;100.00
68994;BME280;56054;50.968;5.816;2023-04-28T02:00:49;100308.88;;;9.96;100.00
68994;BME280;56054;50.968;5.816;2023-04-28T02:03:52;100323.56;;;9.96;100.00
68994;BME280;56054;50.968;5.816;2023-04-28T02:13:47;100320.41;;;10.16;100.00
68994;BME280;56054;50.968;5.816;2023-04-28T02:16:48;100324.81;;;10.17;100.00
68994;BME280;56054;50.968;5.816;2023-04-28T02:19:54;100338.84;;;10.21;100.00
68994;BME280;56054;50.968;5.816;2023-04-28T02:22:54;100340.91;;;10.26;100.00
68994;BME280;56054;50.968;5.816;2023-04-28T02:26:01;100338.16;;;10.23;100.00
68994;BME280;56054;50.968;5.816;2023-04-28T02:29:02;100332.84;;;10.07;100.00
68994;BME280;56054;50.968;5.816;2023-04-28T02:32:06;100331.78;;;10.18;100.00
68994;BME280;56054;50.968;5.816;2023-04-28T02:35:06;100323.47;;;10.09;100.00
68994;BME280;56054;50.968;5.816;2023-04-28T02:38:07;100314.44;;;10.17;100.00
68994;BME280;56054;50.968;5.816;2023-04-28T02:41:07;100325.88;;;10.21;100.00
68994;BME280;56054;50.968;5.816;2023-04-28T02:44:08;100320.06;;;10.10;100.00
68994;BME280;56054;50.968;5.816;2023-04-28T02:47:10;100318.19;;;10.07;100.00
68994;BME280;56054;50.968;5.816;2023-04-28T02:50:11;100318.66;;;10.15;100.00
68994;BME280;56054;50.968;5.816;2023-04-28T02:53:11;100300.53;;;10.02;100.00
68994;BME280;56054;50.968;5.816;2023-04-28T02:56:12;100300.31;;;9.97;100.00
68994;BME280;56054;50.968;5.816;2023-04-28T02:59:12;100289.81;;;9.96;100.00
68994;BME280;56054;50.968;5.816;2023-04-28T03:02:12;100278.34;;;10.07;100.00
68994;BME280;56054;50.968;5.816;2023-04-28T03:05:13;100265.56;;;10.10;100.00
68994;BME280;56054;50.968;5.816;2023-04-28T03:08:13;100264.56;;;10.08;100.00
68994;BME280;56054;50.968;5.816;2023-04-28T03:11:14;100242.19;;;10.10;100.00
68994;BME280;56054;50.968;5.816;2023-04-28T03:14:15;100220.91;;;10.01;100.00
68994;BME280;56054;50.968;5.816;2023-04-28T03:17:15;100196.56;;;9.99;100.00
68994;BME280;56054;50.968;5.816;2023-04-28T03:20:15;100184.19;;;9.95;100.00
68994;BME280;56054;50.968;5.816;2023-04-28T03:23:16;100173.91;;;9.96;100.00
68994;BME280;56054;50.968;5.816;2023-04-28T03:26:16;100207.75;;;9.98;100.00
68994;BME280;56054;50.968;5.816;2023-04-28T03:29:17;100243.00;;;10.09;100.00
68994;BME280;56054;50.968;5.816;2023-04-28T03:32:18;100241.28;;;10.24;100.00
68994;BME280;56054;50.968;5.816;2023-04-28T03:35:19;100233.56;;;10.26;100.00
68994;BME280;56054;50.968;5.816;2023-04-28T03:38:20;100229.56;;;10.16;100.00
68994;BME280;56054;50.968;5.816;2023-04-28T03:41:21;100215.06;;;10.20;100.00
68994;BME280;56054;50.968;5.816;2023-04-28T03:44:44;100213.63;;;10.25;100.00
68994;BME280;56054;50.968;5.816;2023-04-28T03:47:46;100224.44;;;10.33;100.00
68994;BME280;56054;50.968;5.816;2023-04-28T03:50:46;100224.81;;;10.39;100.00
68994;BME280;56054;50.968;5.816;2023-04-28T03:53:47;100215.63;;;10.45;100.00
68994;BME280;56054;50.968;5.816;2023-04-28T03:56:48;100224.81;;;10.55;100.00
68994;BME280;56054;50.968;5.816;2023-04-28T03:59:49;100220.94;;;10.47;100.00
68994;BME280;56054;50.968;5.816;2023-04-28T04:02:50;100214.59;;;10.42;100.00
68994;BME280;56054;50.968;5.816;2023-04-28T04:05:50;100219.13;;;10.46;100.00
68994;BME280;56054;50.968;5.816;2023-04-28T04:08:51;100212.97;;;10.44;100.00
68994;BME280;56054;50.968;5.816;2023-04-28T04:11:51;100211.69;;;10.52;100.00
68994;BME280;56054;50.968;5.816;2023-04-28T04:14:51;100214.19;;;10.50;100.00
68994;BME280;56054;50.968;5.816;2023-04-28T04:17:53;100220.75;;;10.44;100.00
68994;BME280;56054;50.968;5.816;2023-04-28T04:20:55;100220.66;;;10.42;100.00
68994;BME280;56054;50.968;5.816;2023-04-28T04:23:56;100223.53;;;10.47;100.00
68994;BME280;56054;50.968;5.816;2023-04-28T04:26:56;100214.38;;;10.54;100.00
68994;BME280;56054;50.968;5.816;2023-04-28T04:30:08;100210.13;;;10.56;100.00
68994;BME280;56054;50.968;5.816;2023-04-28T04:33:10;100217.69;;;10.51;100.00
68994;BME280;56054;50.968;5.816;2023-04-28T04:36:11;100213.28;;;10.50;100.00
68994;BME280;56054;50.968;5.816;2023-04-28T04:39:11;100206.72;;;10.57;100.00
68994;BME280;56054;50.968;5.816;2023-04-28T04:42:11;100215.66;;;10.62;100.00
68994;BME280;56054;50.968;5.816;2023-04-28T04:45:18;100210.31;;;10.59;100.00
68994;BME280;56054;50.968;5.816;2023-04-28T04:48:19;100220.28;;;10.67;100.00
68994;BME280;56054;50.968;5.816;2023-04-28T04:51:19;100213.53;;;10.55;100.00
68994;BME280;56054;50.968;5.816;2023-04-28T04:54:20;100203.97;;;10.54;100.00
68994;BME280;56054;50.968;5.816;2023-04-28T04:57:21;100205.75;;;10.55;100.00
68994;BME280;56054;50.968;5.816;2023-04-28T05:00:39;100199.81;;;10.57;100.00
68994;BME280;56054;50.968;5.816;2023-04-28T05:03:43;100189.59;;;10.60;100.00
68994;BME280;56054;50.968;5.816;2023-04-28T05:06:43;100202.69;;;10.62;100.00
68994;BME280;56054;50.968;5.816;2023-04-28T05:09:45;100202.84;;;10.65;100.00
68994;BME280;56054;50.968;5.816;2023-04-28T05:12:46;100199.44;;;10.66;100.00
68994;BME280;56054;50.968;5.816;2023-04-28T05:15:46;100197.09;;;10.70;100.00
68994;BME280;56054;50.968;5.816;2023-04-28T05:19:11;100197.09;;;10.70;100.00
68994;BME280;56054;50.968;5.816;2023-04-28T05:22:11;100190.44;;;10.76;100.00
68994;BME280;56054;50.968;5.816;2023-04-28T05:25:15;100190.34;;;10.74;100.00
68994;BME280;56054;50.968;5.816;2023-04-28T05:28:18;100197.66;;;10.81;100.00
68994;BME280;56054;50.968;5.816;2023-04-28T05:31:19;100204.56;;;10.81;100.00
68994;BME280;56054;50.968;5.816;2023-04-28T05:34:21;100197.91;;;10.86;100.00
68994;BME280;56054;50.968;5.816;2023-04-28T05:37:21;100207.47;;;10.87;100.00
68994;BME280;56054;50.968;5.816;2023-04-28T05:40:22;100196.03;;;10.83;100.00
68994;BME280;56054;50.968;5.816;2023-04-28T05:43:23;100202.97;;;10.83;100.00
68994;BME280;56054;50.968;5.816;2023-04-28T05:46:23;100200.56;;;10.87;100.00
68994;BME280;56054;50.968;5.816;2023-04-28T05:49:24;100191.09;;;10.88;100.00
68994;BME280;56054;50.968;5.816;2023-04-28T05:52:24;100195.06;;;10.98;100.00
68994;BME280;56054;50.968;5.816;2023-04-28T05:55:25;100192.88;;;11.05;100.00
68994;BME280;56054;50.968;5.816;2023-04-28T05:58:27;100201.41;;;11.03;100.00
68994;BME280;56054;50.968;5.816;2023-04-28T06:01:27;100198.13;;;11.07;100.00
68994;BME280;56054;50.968;5.816;2023-04-28T06:04:27;100200.00;;;11.09;100.00
68994;BME280;56054;50.968;5.816;2023-04-28T06:07:28;100190.50;;;11.10;100.00
68994;BME280;56054;50.968;5.816;2023-04-28T06:10:29;100195.03;;;11.14;100.00
68994;BME280;56054;50.968;5.816;2023-04-28T06:13:30;100187.34;;;11.16;100.00
68994;BME280;56054;50.968;5.816;2023-04-28T06:16:30;100180.75;;;11.22;100.00
68994;BME280;56054;50.968;5.816;2023-04-28T06:19:31;100182.63;;;11.25;100.00
68994;BME280;56054;50.968;5.816;2023-04-28T06:22:31;100205.75;;;11.37;100.00
68994;BME280;56054;50.968;5.816;2023-04-28T06:25:32;100208.59;;;11.41;100.00
68994;BME280;56054;50.968;5.816;2023-04-28T06:28:33;100209.53;;;11.43;100.00
68994;BME280;56054;50.968;5.816;2023-04-28T06:31:33;100199.38;;;11.48;100.00
68994;BME280;56054;50.968;5.816;2023-04-28T06:34:34;100209.53;;;11.43;100.00
68994;BME280;56054;50.968;5.816;2023-04-28T06:37:34;100214.09;;;11.47;100.00
68994;BME280;56054;50.968;5.816;2023-04-28T06:40:35;100207.66;;;11.57;100.00
68994;BME280;56054;50.968;5.816;2023-04-28T06:43:37;100209.66;;;11.63;100.00
68994;BME280;56054;50.968;5.816;2023-04-28T06:46:42;100202.31;;;11.72;100.00
68994;BME280;56054;50.968;5.816;2023-04-28T06:49:43;100195.16;;;11.68;100.00
68994;BME280;56054;50.968;5.816;2023-04-28T06:55:55;100201.31;;;11.86;100.00
68994;BME280;56054;50.968;5.816;2023-04-28T06:59:13;100190.66;;;11.82;100.00
68994;BME280;56054;50.968;5.816;2023-04-28T07:02:16;100188.56;;;11.91;100.00
68994;BME280;56054;50.968;5.816;2023-04-28T07:05:16;100190.56;;;11.96;100.00
68994;BME280;56054;50.968;5.816;2023-04-28T07:08:16;100189.91;;;12.01;100.00
68994;BME280;56054;50.968;5.816;2023-04-28T07:11:17;100190.91;;;12.04;100.00
68994;BME280;56054;50.968;5.816;2023-04-28T07:14:17;100195.47;;;12.08;100.00
68994;BME280;56054;50.968;5.816;2023-04-28T07:17:18;100193.00;;;12.11;100.00
68994;BME280;56054;50.968;5.816;2023-04-28T07:20:18;100193.38;;;12.19;100.00
68994;BME280;56054;50.968;5.816;2023-04-28T07:23:21;100189.28;;;12.24;100.00
68994;BME280;56054;50.968;5.816;2023-04-28T07:26:22;100198.34;;;12.32;100.00
68994;BME280;56054;50.968;5.816;2023-04-28T07:29:23;100197.00;;;12.40;100.00
68994;BME280;56054;50.968;5.816;2023-04-28T07:32:23;100194.34;;;12.39;100.00
68994;BME280;56054;50.968;5.816;2023-04-28T07:35:24;100193.38;;;12.37;100.00
68994;BME280;56054;50.968;5.816;2023-04-28T07:38:26;100189.88;;;12.36;100.00
68994;BME280;56054;50.968;5.816;2023-04-28T07:41:26;100207.88;;;12.32;100.00
68994;BME280;56054;50.968;5.816;2023-04-28T07:44:28;100197.00;;;12.40;100.00
68994;BME280;56054;50.968;5.816;2023-04-28T07:47:28;100197.13;;;12.43;100.00
68994;BME280;56054;50.968;5.816;2023-04-28T07:50:31;100197.31;;;12.47;100.00
68994;BME280;56054;50.968;5.816;2023-04-28T07:53:32;100194.44;;;12.60;100.00
68994;BME280;56054;50.968;5.816;2023-04-28T07:56:32;100190.09;;;12.60;100.00
68994;BME280;56054;50.968;5.816;2023-04-28T07:59:33;100186.75;;;12.63;100.00
68994;BME280;56054;50.968;5.816;2023-04-28T08:02:34;100196.84;;;12.75;100.00
68994;BME280;56054;50.968;5.816;2023-04-28T08:05:35;100203.84;;;12.76;100.00
68994;BME280;56054;50.968;5.816;2023-04-28T08:08:35;100204.06;;;12.80;100.00
68994;BME280;56054;50.968;5.816;2023-04-28T08:11:36;100197.34;;;12.85;100.00
68994;BME280;56054;50.968;5.816;2023-04-28T08:14:36;100201.31;;;12.97;100.00
68994;BME280;56054;50.968;5.816;2023-04-28T08:17:36;100199.78;;;13.02;100.00
68994;BME280;56054;50.968;5.816;2023-04-28T08:20:39;100206.13;;;13.07;100.00
68994;BME280;56054;50.968;5.816;2023-04-28T08:23:40;100204.69;;;13.14;100.00
68994;BME280;56054;50.968;5.816;2023-04-28T08:26:43;100208.03;;;13.11;100.00
68994;BME280;56054;50.968;5.816;2023-04-28T08:29:44;100216.97;;;13.16;100.00
68994;BME280;56054;50.968;5.816;2023-04-28T08:32:47;100206.72;;;13.21;100.00
68994;BME280;56054;50.968;5.816;2023-04-28T08:35:47;100214.66;;;13.42;100.00
68994;BME280;56054;50.968;5.816;2023-04-28T08:38:48;100212.44;;;13.51;100.00
68994;BME280;56054;50.968;5.816;2023-04-28T08:41:48;100212.13;;;13.64;100.00
68994;BME280;56054;50.968;5.816;2023-04-28T08:44:50;100217.84;;;13.77;100.00
68994;BME280;56054;50.968;5.816;2023-04-28T08:55:22;100218.94;;;14.03;100.00
68994;BME280;56054;50.968;5.816;2023-04-28T08:58:25;100215.31;;;13.99;100.00
68994;BME280;56054;50.968;5.816;2023-04-28T09:01:26;100218.19;;;14.05;100.00
68994;BME280;56054;50.968;5.816;2023-04-28T09:04:26;100213.25;;;14.13;100.00
68994;BME280;56054;50.968;5.816;2023-04-28T09:07:27;100218.66;;;14.18;100.00
68994;BME280;56054;50.968;5.816;2023-04-28T09:10:27;100220.44;;;14.19;100.00
68994;BME280;56054;50.968;5.816;2023-04-28T09:13:27;100218.91;;;14.24;100.00
68994;BME280;56054;50.968;5.816;2023-04-28T09:16:39;100220.00;;;14.29;100.00
68994;BME280;56054;50.968;5.816;2023-04-28T09:19:40;100231.28;;;14.28;100.00
68994;BME280;56054;50.968;5.816;2023-04-28T09:22:43;100218.28;;;14.29;100.00
68994;BME280;56054;50.968;5.816;2023-04-28T09:26:04;100229.03;;;14.37;100.00
68994;BME280;56054;50.968;5.816;2023-04-28T09:29:11;100218.78;;;14.64;100.00
68994;BME280;56054;50.968;5.816;2023-04-28T09:32:16;100214.88;;;14.75;100.00
68994;BME280;56054;50.968;5.816;2023-04-28T09:35:41;100216.41;;;14.93;100.00
68994;BME280;56054;50.968;5.816;2023-04-28T09:38:45;100210.31;;;15.18;100.00
68994;BME280;56054;50.968;5.816;2023-04-28T09:41:45;100207.88;;;15.48;100.00
68994;BME280;56054;50.968;5.816;2023-04-28T09:44:52;100211.41;;;15.49;100.00
68994;BME280;56054;50.968;5.816;2023-04-28T09:48:08;100215.09;;;15.54;100.00
68994;BME280;56054;50.968;5.816;2023-04-28T09:51:09;100225.34;;;15.48;100.00
68994;BME280;56054;50.968;5.816;2023-04-28T09:54:12;100222.34;;;15.37;100.00
68994;BME280;56054;50.968;5.816;2023-04-28T09:57:13;100226.47;;;15.30;100.00
68994;BME280;56054;50.968;5.816;2023-04-28T10:00:14;100222.88;;;15.27;100.00
68994;BME280;56054;50.968;5.816;2023-04-28T10:03:16;100223.56;;;15.23;100.00
68994;BME280;56054;50.968;5.816;2023-04-28T10:06:19;100225.19;;;15.19;100.00
68994;BME280;56054;50.968;5.816;2023-04-28T10:09:19;100222.63;;;15.20;100.00
68994;BME280;56054;50.968;5.816;2023-04-28T10:12:21;100230.09;;;15.34;100.00
68994;BME280;56054;50.968;5.816;2023-04-28T10:15:22;100216.53;;;15.46;100.00
68994;BME280;56054;50.968;5.816;2023-04-28T10:18:23;100212.63;;;15.58;100.00
68994;BME280;56054;50.968;5.816;2023-04-28T10:21:24;100207.16;;;15.76;100.00
68994;BME280;56054;50.968;5.816;2023-04-28T10:24:28;100197.09;;;15.89;100.00
68994;BME280;56054;50.968;5.816;2023-04-28T10:27:30;100199.56;;;16.11;100.00
68994;BME280;56054;50.968;5.816;2023-04-28T10:30:31;100199.03;;;16.50;100.00
68994;BME280;56054;50.968;5.816;2023-04-28T10:33:31;100195.28;;;16.42;100.00
68994;BME280;56054;50.968;5.816;2023-04-28T10:36:49;100198.44;;;16.60;100.00
68994;BME280;56054;50.968;5.816;2023-04-28T10:46:59;100188.81;;;16.59;100.00
68994;BME280;56054;50.968;5.816;2023-04-28T10:50:06;100187.06;;;16.58;100.00
68994;BME280;56054;50.968;5.816;2023-04-28T10:53:09;100188.81;;;16.59;100.00
68994;BME280;56054;50.968;5.816;2023-04-28T10:56:23;100193.63;;;16.74;100.00
68994;BME280;56054;50.968;5.816;2023-04-28T10:59:24;100191.00;;;16.74;100.00
68994;BME280;56054;50.968;5.816;2023-04-28T11:02:35;100189.56;;;16.84;100.00
68994;BME280;56054;50.968;5.816;2023-04-28T11:05:36;100184.66;;;17.60;100.00
68994;BME280;56054;50.968;5.816;2023-04-28T11:08:36;100188.13;;;17.59;100.00
68994;BME280;56054;50.968;5.816;2023-04-28T11:11:37;100183.03;;;17.98;100.00
68994;BME280;56054;50.968;5.816;2023-04-28T11:14:38;100179.22;;;18.22;100.00
68994;BME280;56054;50.968;5.816;2023-04-28T11:17:40;100184.19;;;18.09;100.00
68994;BME280;56054;50.968;5.816;2023-04-28T11:20:43;100187.09;;;17.85;100.00
68994;BME280;56054;50.968;5.816;2023-04-28T11:23:46;100182.72;;;17.86;100.00
68994;BME280;56054;50.968;5.816;2023-04-28T11:26:49;100187.22;;;17.91;100.00
68994;BME280;56054;50.968;5.816;2023-04-28T11:29:49;100177.72;;;17.96;100.00
68994;BME280;56054;50.968;5.816;2023-04-28T11:32:50;100187.81;;;18.16;100.00
68994;BME280;56054;50.968;5.816;2023-04-28T11:35:50;100174.47;;;18.45;100.00
68994;BME280;56054;50.968;5.816;2023-04-28T11:38:53;100175.28;;;18.81;100.00
68994;BME280;56054;50.968;5.816;2023-04-28T11:41:54;100180.59;;;18.85;100.00
68994;BME280;56054;50.968;5.816;2023-04-28T11:44:54;100170.69;;;19.15;100.00
68994;BME280;56054;50.968;5.816;2023-04-28T11:47:55;100169.47;;;19.45;100.00
68994;BME280;56054;50.968;5.816;2023-04-28T11:50:55;100167.34;;;19.24;100.00
68994;BME280;56054;50.968;5.816;2023-04-28T11:53:55;100155.47;;;19.46;100.00
68994;BME280;56054;50.968;5.816;2023-04-28T11:56:57;100154.84;;;19.14;95.58
68994;BME280;56054;50.968;5.816;2023-04-28T12:00:14;100157.22;;;19.47;96.83
68994;BME280;56054;50.968;5.816;2023-04-28T12:03:14;100158.25;;;19.55;97.08
68994;BME280;56054;50.968;5.816;2023-04-28T12:06:18;100171.38;;;20.02;91.99
68994;BME280;56054;50.968;5.816;2023-04-28T12:09:18;100158.38;;;19.63;98.19
68994;BME280;56054;50.968;5.816;2023-04-28T12:12:30;100164.22;;;19.95;92.95
68994;BME280;56054;50.968;5.816;2023-04-28T12:15:39;100158.13;;;19.99;94.65
68994;BME280;56054;50.968;5.816;2023-04-28T12:18:57;100165.38;;;19.62;94.44
68994;BME280;56054;50.968;5.816;2023-04-28T12:22:05;100163.34;;;19.44;97.69
68994;BME280;56054;50.968;5.816;2023-04-28T12:25:11;100161.03;;;19.64;94.78
68994;BME280;56054;50.968;5.816;2023-04-28T12:28:11;100162.25;;;19.82;93.29
68994;BME280;56054;50.968;5.816;2023-04-28T12:31:12;100169.69;;;19.56;93.50
68994;BME280;56054;50.968;5.816;2023-04-28T12:34:12;100166.59;;;19.78;93.02
68994;BME280;56054;50.968;5.816;2023-04-28T12:37:13;100160.06;;;19.59;93.41
68994;BME280;56054;50.968;5.816;2023-04-28T12:40:13;100162.97;;;19.72;91.69
68994;BME280;56054;50.968;5.816;2023-04-28T12:43:14;100168.00;;;20.13;90.92
68994;BME280;56054;50.968;5.816;2023-04-28T12:46:14;100158.91;;;20.51;90.25
68994;BME280;56054;50.968;5.816;2023-04-28T12:49:14;100168.75;;;20.02;91.83
68994;BME280;56054;50.968;5.816;2023-04-28T12:52:15;100166.97;;;20.04;90.57
68994;BME280;56054;50.968;5.816;2023-04-28T12:55:15;100169.19;;;19.77;91.85
68994;BME280;56054;50.968;5.816;2023-04-28T12:58:16;100164.84;;;19.79;91.54
68994;BME280;56054;50.968;5.816;2023-04-28T13:01:19;100173.22;;;19.56;91.36
68994;BME280;56054;50.968;5.816;2023-04-28T13:04:20;100164.03;;;19.84;93.03
68994;BME280;56054;50.968;5.816;2023-04-28T13:07:20;100178.38;;;20.00;90.96
68994;BME280;56054;50.968;5.816;2023-04-28T13:10:21;100179.69;;;19.74;91.88
68994;BME280;56054;50.968;5.816;2023-04-28T13:13:21;100175.41;;;19.80;89.65
68994;BME280;56054;50.968;5.816;2023-04-28T13:16:28;100180.72;;;19.35;91.16
68994;BME280;56054;50.968;5.816;2023-04-28T13:19:29;100180.19;;;19.54;92.00
68994;BME280;56054;50.968;5.816;2023-04-28T13:22:29;100196.78;;;19.97;89.00
68994;BME280;56054;50.968;5.816;2023-04-28T13:25:30;100191.03;;;19.70;89.96
68994;BME280;56054;50.968;5.816;2023-04-28T13:28:37;100194.78;;;19.84;88.64
68994;BME280;56054;50.968;5.816;2023-04-28T13:31:38;100179.09;;;19.43;89.78
68994;BME280;56054;50.968;5.816;2023-04-28T13:34:39;100194.91;;;19.43;91.08
68994;BME280;56054;50.968;5.816;2023-04-28T13:37:40;100200.78;;;19.27;92.16
68994;BME280;56054;50.968;5.816;2023-04-28T13:40:43;100193.28;;;19.98;92.89
68994;BME280;56054;50.968;5.816;2023-04-28T13:43:43;100195.03;;;19.98;88.67
68994;BME280;56054;50.968;5.816;2023-04-28T13:46:44;100196.06;;;20.09;89.34
68994;BME280;56054;50.968;5.816;2023-04-28T13:49:44;100187.25;;;20.05;91.38
68994;BME280;56054;50.968;5.816;2023-04-28T13:52:45;100194.94;;;19.93;91.38
68994;BME280;56054;50.968;5.816;2023-04-28T13:55:47;100207.81;;;19.73;92.75
68994;BME280;56054;50.968;5.816;2023-04-28T13:58:54;100223.97;;;19.46;92.66
68994;BME280;56054;50.968;5.816;2023-04-28T14:07:59;100235.41;;;19.02;94.74
68994;BME280;56054;50.968;5.816;2023-04-28T14:11:00;100231.69;;;18.93;95.39
68994;BME280;56054;50.968;5.816;2023-04-28T14:14:00;100247.69;;;19.02;93.64
68994;BME280;56054;50.968;5.816;2023-04-28T14:17:01;100237.00;;;18.56;93.41
68994;BME280;56054;50.968;5.816;2023-04-28T14:20:02;100242.66;;;19.14;90.84
68994;BME280;56054;50.968;5.816;2023-04-28T14:23:03;100239.31;;;18.80;90.89
68994;BME280;56054;50.968;5.816;2023-04-28T14:26:03;100249.59;;;18.71;90.44
68994;BME280;56054;50.968;5.816;2023-04-28T14:29:04;100263.13;;;18.87;89.71
68994;BME280;56054;50.968;5.816;2023-04-28T14:32:04;100260.88;;;18.66;90.58
68994;BME280;56054;50.968;5.816;2023-04-28T14:35:06;100263.72;;;18.38;92.27
68994;BME280;56054;50.968;5.816;2023-04-28T14:38:07;100261.38;;;18.13;92.29
68994;BME280;56054;50.968;5.816;2023-04-28T14:41:07;100269.16;;;18.45;92.91
68994;BME280;56054;50.968;5.816;2023-04-28T14:44:08;100260.84;;;18.28;93.33
68994;BME280;56054;50.968;5.816;2023-04-28T14:47:08;100263.13;;;18.14;95.40
68994;BME280;56054;50.968;5.816;2023-04-28T14:50:09;100278.06;;;17.80;96.38
68994;BME280;56054;50.968;5.816;2023-04-28T14:53:09;100269.88;;;18.03;96.12
68994;BME280;56054;50.968;5.816;2023-04-28T14:56:10;100274.91;;;17.93;96.30
68994;BME280;56054;50.968;5.816;2023-04-28T14:59:10;100279.75;;;17.80;94.41
68994;BME280;56054;50.968;5.816;2023-04-28T15:02:11;100281.34;;;17.73;95.52
68994;BME280;56054;50.968;5.816;2023-04-28T15:05:12;100278.97;;;17.50;94.88
68994;BME280;56054;50.968;5.816;2023-04-28T15:08:15;100291.19;;;17.18;94.85
68994;BME280;56054;50.968;5.816;2023-04-28T15:11:16;100289.75;;;16.99;95.97
68994;BME280;56054;50.968;5.816;2023-04-28T15:14:16;100293.06;;;17.22;96.37
68994;BME280;56054;50.968;5.816;2023-04-28T15:17:18;100288.13;;;17.04;96.91
68994;BME280;56054;50.968;5.816;2023-04-28T15:20:19;100296.94;;;17.05;96.21
68994;BME280;56054;50.968;5.816;2023-04-28T15:23:19;100302.69;;;17.22;96.87
68994;BME280;56054;50.968;5.816;2023-04-28T15:26:20;100298.38;;;16.95;97.66
68994;BME280;56054;50.968;5.816;2023-04-28T15:29:20;100304.56;;;16.70;97.26
68994;BME280;56054;50.968;5.816;2023-04-28T15:32:21;100304.53;;;16.68;98.68
68994;BME280;56054;50.968;5.816;2023-04-28T15:35:21;100315.09;;;16.72;99.26
68994;BME280;56054;50.968;5.816;2023-04-28T15:38:21;100308.81;;;16.66;98.51
68994;BME280;56054;50.968;5.816;2023-04-28T15:41:23;100305.34;;;16.40;99.27
68994;BME280;56054;50.968;5.816;2023-04-28T15:44:24;100309.00;;;16.44;100.00
68994;BME280;56054;50.968;5.816;2023-04-28T15:47:24;100312.91;;;16.31;100.00
68994;BME280;56054;50.968;5.816;2023-04-28T15:50:29;100321.00;;;16.37;100.00
68994;BME280;56054;50.968;5.816;2023-04-28T15:53:29;100320.69;;;16.28;100.00
68994;BME280;56054;50.968;5.816;2023-04-28T15:56:30;100323.53;;;16.09;100.00
68994;BME280;56054;50.968;5.816;2023-04-28T15:59:30;100327.75;;;16.31;100.00
68994;BME280;56054;50.968;5.816;2023-04-28T16:02:40;100327.91;;;16.35;99.95
68994;BME280;56054;50.968;5.816;2023-04-28T16:16:07;100329.19;;;15.95;100.00
68994;BME280;56054;50.968;5.816;2023-04-28T16:19:07;100333.31;;;15.89;100.00
68994;BME280;56054;50.968;5.816;2023-04-28T16:22:07;100325.03;;;16.02;100.00
68994;BME280;56054;50.968;5.816;2023-04-28T16:25:08;100327.63;;;16.00;100.00